createdAt,value
2019-02-02T00:02:51.957Z," 1.35"
2019-02-02T00:07:48.197Z," 1.40"
2019-02-02T00:12:43.615Z," 1.44"
2019-02-02T00:17:39.242Z," 1.40"
2019-02-02T00:22:34.781Z," 1.26"
2019-02-02T00:27:41.074Z," 1.23"
2019-02-02T00:32:29.974Z," 1.37"
2019-02-02T00:37:26.511Z," 1.45"
2019-02-02T00:42:21.772Z," 1.38"
2019-02-02T00:47:17.387Z," 1.31"
2019-02-02T00:52:13.972Z," 1.28"
2019-02-02T00:57:09.061Z," 1.23"
2019-02-02T01:02:04.516Z," 1.37"
2019-02-02T01:07:00.073Z," 1.48"
2019-02-02T01:11:56.686Z," 1.41"
2019-02-02T01:16:51.782Z," 1.45"
2019-02-02T01:21:48.433Z," 1.45"
2019-02-02T01:26:43.595Z," 1.48"
2019-02-02T01:31:39.205Z," 1.56"
2019-02-02T01:36:34.811Z," 1.53"
2019-02-02T01:41:30.922Z," 1.49"
2019-02-02T01:46:26.338Z," 1.52"
2019-02-02T01:51:21.928Z," 1.44"
2019-02-02T01:56:17.558Z," 1.49"
2019-02-02T02:01:14.569Z," 1.45"
2019-02-02T02:06:09.761Z," 1.40"
2019-02-02T02:11:05.210Z," 1.40"
2019-02-02T02:16:00.827Z," 1.38"
2019-02-02T02:20:56.446Z," 1.32"
2019-02-02T02:25:51.916Z," 1.38"
2019-02-02T02:30:47.726Z," 1.41"
2019-02-02T02:35:44.216Z," 1.40"
2019-02-02T02:40:39.628Z," 1.50"
2019-02-02T02:45:35.288Z," 1.40"
2019-02-02T02:50:31.302Z," 1.37"
2019-02-02T02:55:26.815Z," 1.35"
2019-02-02T03:00:23.391Z," 1.42"
2019-02-02T03:05:18.934Z," 1.62"
2019-02-02T03:10:15.611Z," 1.66"
2019-02-02T03:15:10.991Z," 1.73"
2019-02-02T03:20:06.391Z," 1.71"
2019-02-02T03:25:03.258Z," 1.76"
2019-02-02T03:29:58.749Z," 1.71"
2019-02-02T03:34:54.236Z," 1.73"
2019-02-02T03:39:49.737Z," 1.73"
2019-02-02T03:44:46.188Z," 1.81"
2019-02-02T03:49:41.748Z," 1.84"
2019-02-02T03:54:37.576Z," 1.91"
2019-02-02T03:59:33.280Z," 1.92"
2019-02-02T04:04:28.770Z," 1.88"
2019-02-02T04:09:25.157Z," 2.00"
2019-02-02T04:14:20.812Z," 2.02"
2019-02-02T04:19:17.199Z," 1.97"
2019-02-02T04:24:12.806Z," 2.00"
2019-02-02T04:29:17.587Z," 1.97"
2019-02-02T04:34:07.385Z," 1.95"
2019-02-02T04:39:02.871Z," 2.07"
2019-02-02T04:43:58.378Z," 2.04"
2019-02-02T04:48:53.793Z," 2.17"
2019-02-02T04:53:48.966Z," 2.08"
2019-02-02T04:58:44.510Z," 2.15"
2019-02-02T05:03:40.141Z," 2.24"
2019-02-02T05:08:35.696Z," 2.25"
2019-02-02T05:13:31.209Z," 2.29"
2019-02-02T05:18:27.089Z," 2.33"
2019-02-02T05:23:22.692Z," 2.32"
2019-02-02T05:28:18.268Z," 2.43"
2019-02-02T05:33:13.735Z," 2.33"
2019-02-02T05:38:10.271Z," 2.36"
2019-02-02T05:43:05.648Z," 2.42"
2019-02-02T05:48:01.963Z," 2.38"
2019-02-02T05:52:58.398Z," 2.31"
2019-02-02T05:57:54.775Z," 2.29"
2019-02-02T06:02:51.043Z," 2.44"
2019-02-02T06:07:46.980Z," 2.44"
2019-02-02T06:12:42.486Z," 2.42"
2019-02-02T06:17:38.046Z," 2.39"
2019-02-02T06:22:34.613Z," 2.44"
2019-02-02T06:27:29.898Z," 2.32"
2019-02-02T06:32:25.405Z," 2.35"
2019-02-02T06:37:22.119Z," 2.33"
2019-02-02T06:42:17.451Z," 2.32"
2019-02-02T06:47:12.908Z," 2.29"
2019-02-02T06:52:08.368Z," 2.28"
2019-02-02T06:57:03.974Z," 2.32"
2019-02-02T07:02:01.428Z," 2.32"
2019-02-02T07:06:57.306Z," 2.32"
2019-02-02T07:11:53.947Z," 2.28"
2019-02-02T07:16:50.426Z," 2.28"
2019-02-02T07:21:46.804Z," 2.28"
2019-02-02T07:26:42.027Z," 2.26"
2019-02-02T07:31:37.524Z," 2.26"
2019-02-02T07:36:33.078Z," 2.31"
2019-02-02T07:41:29.782Z," 2.15"
2019-02-02T07:46:25.563Z," 2.15"
2019-02-02T07:51:21.171Z," 2.14"
2019-02-02T07:56:16.925Z," 2.08"
2019-02-02T08:01:12.441Z," 2.06"
2019-02-02T08:06:08.054Z," 2.13"
2019-02-02T08:11:03.577Z," 2.04"
2019-02-02T08:15:58.904Z," 2.08"
2019-02-02T08:20:55.443Z," 2.14"
2019-02-02T08:25:50.718Z," 2.20"
2019-02-02T08:30:52.408Z," 2.26"
2019-02-02T08:35:45.815Z," 2.17"
2019-02-02T08:40:41.719Z," 2.15"
2019-02-02T08:45:37.316Z," 1.99"
2019-02-02T08:50:33.478Z," 2.10"
2019-02-02T08:55:29.272Z," 2.11"
2019-02-02T09:00:24.729Z," 2.14"
2019-02-02T09:05:20.972Z," 2.14"
2019-02-02T09:10:16.507Z," 2.31"
2019-02-02T09:15:12.697Z," 2.26"
2019-02-02T09:20:08.043Z," 2.25"
2019-02-02T09:25:04.771Z," 2.38"
2019-02-02T09:30:00.468Z," 2.50"
2019-02-02T09:34:56.024Z," 2.47"
2019-02-02T09:39:52.483Z," 2.49"
2019-02-02T09:44:47.813Z," 2.50"
2019-02-02T09:49:43.571Z," 2.51"
2019-02-02T09:54:39.376Z," 2.38"
2019-02-02T09:59:35.432Z," 2.47"
2019-02-02T10:04:30.539Z," 2.47"
2019-02-02T10:09:25.876Z," 2.44"
2019-02-02T10:14:21.685Z," 2.60"
2019-02-02T10:19:17.292Z," 2.54"
2019-02-02T10:24:13.064Z," 2.25"
2019-02-02T10:29:09.631Z," 2.31"
2019-02-02T10:34:04.778Z," 2.36"
2019-02-02T10:39:00.410Z," 2.26"
2019-02-02T10:43:57.204Z," 2.38"
2019-02-02T10:48:53.373Z," 2.49"
2019-02-02T10:53:50.535Z," 2.35"
2019-02-02T10:58:46.968Z," 2.33"
2019-02-02T11:03:42.632Z," 2.36"
2019-02-02T11:08:39.413Z," 2.42"
2019-02-02T11:13:35.639Z," 2.26"
2019-02-02T11:18:31.616Z," 2.47"
2019-02-02T11:23:27.115Z," 2.57"
2019-02-02T11:28:23.835Z," 2.51"
2019-02-02T11:33:19.235Z," 2.51"
2019-02-02T11:38:15.582Z," 2.54"
2019-02-02T11:43:11.094Z," 2.47"
2019-02-02T11:48:06.847Z," 2.51"
2019-02-02T11:53:02.562Z," 2.43"
2019-02-02T11:57:58.041Z," 2.29"
2019-02-02T12:02:53.359Z," 2.29"
2019-02-02T12:07:50.032Z," 2.18"
2019-02-02T12:12:45.199Z," 2.32"
2019-02-02T12:17:41.191Z," 2.32"
2019-02-02T12:22:36.722Z," 2.35"
2019-02-02T12:27:32.201Z," 2.56"
2019-02-02T12:32:28.821Z," 2.56"
2019-02-02T12:37:23.927Z," 2.46"
2019-02-02T12:42:20.217Z," 2.50"
2019-02-02T12:47:15.746Z," 2.28"
2019-02-02T12:52:12.110Z," 2.32"
2019-02-02T12:57:07.772Z," 2.32"
2019-02-02T13:02:03.444Z," 2.29"
2019-02-02T13:06:59.096Z," 2.35"
2019-02-02T13:11:56.292Z," 2.38"
2019-02-02T13:16:51.331Z," 2.42"
2019-02-02T13:21:48.023Z," 2.60"
2019-02-02T13:26:44.421Z," 2.64"
2019-02-02T13:31:39.985Z," 2.61"
2019-02-02T13:36:36.439Z," 2.54"
2019-02-02T13:41:33.233Z," 2.39"
2019-02-02T13:46:28.330Z," 2.33"
2019-02-02T13:51:24.756Z," 2.33"
2019-02-02T13:56:20.145Z," 2.17"
2019-02-02T14:01:15.749Z," 2.26"
2019-02-02T14:06:12.098Z," 2.20"
2019-02-02T14:11:07.326Z," 2.15"
2019-02-02T14:16:03.699Z," 2.15"
2019-02-02T14:20:59.179Z," 2.24"
2019-02-02T14:25:54.537Z," 2.31"
2019-02-02T14:30:53.565Z," 2.31"
2019-02-02T14:35:52.328Z," 2.38"
2019-02-02T14:40:48.194Z," 2.29"
2019-02-02T14:45:43.491Z," 2.31"
2019-02-02T14:50:39.231Z," 2.22"
2019-02-02T14:55:34.954Z," 2.29"
2019-02-02T15:00:30.589Z," 2.33"
2019-02-02T15:05:26.237Z," 2.15"
2019-02-02T15:10:21.686Z," 2.00"
2019-02-02T15:15:17.098Z," 2.07"
2019-02-02T15:20:13.829Z," 2.06"
2019-02-02T15:25:10.052Z," 1.89"
2019-02-02T15:30:06.327Z," 1.91"
2019-02-02T15:35:02.767Z," 1.84"
2019-02-02T15:39:59.579Z," 1.95"
2019-02-02T15:44:54.849Z," 1.94"
2019-02-02T15:49:50.352Z," 1.97"
2019-02-02T15:54:45.972Z," 1.91"
2019-02-02T15:59:41.448Z," 1.91"
2019-02-02T16:04:36.985Z," 1.91"
2019-02-02T16:09:32.512Z," 1.85"
2019-02-02T16:14:29.129Z," 1.91"
2019-02-02T16:19:26.187Z," 1.88"
2019-02-02T16:24:21.183Z," 1.87"
2019-02-02T16:29:16.662Z," 1.77"
2019-02-02T16:34:13.303Z," 1.81"
2019-02-02T16:39:08.672Z," 1.84"
2019-02-02T16:44:04.206Z," 1.89"
2019-02-02T16:48:59.691Z," 1.77"
2019-02-02T16:53:55.286Z," 1.80"
2019-02-02T16:58:50.778Z," 1.76"
2019-02-02T17:03:46.346Z," 1.85"
2019-02-02T17:08:43.120Z," 1.87"
2019-02-02T17:13:38.466Z," 1.91"
2019-02-02T17:18:33.902Z," 1.81"
2019-02-02T17:23:29.412Z," 1.89"
2019-02-02T17:28:24.813Z," 1.84"
2019-02-02T17:33:20.416Z," 1.87"
2019-02-02T17:38:16.031Z," 1.88"
2019-02-02T17:43:12.557Z," 1.80"
2019-02-02T17:48:07.947Z," 1.92"
2019-02-02T17:53:04.494Z," 1.92"
2019-02-02T17:57:59.799Z," 1.81"
2019-02-02T18:02:56.444Z," 1.74"
2019-02-02T18:07:52.387Z," 1.85"
2019-02-02T18:12:48.066Z," 1.92"
2019-02-02T18:17:44.268Z," 1.88"
2019-02-02T18:22:39.894Z," 1.94"
2019-02-02T18:27:35.532Z," 1.97"
2019-02-02T18:32:31.759Z," 1.92"
2019-02-02T18:37:27.575Z," 1.97"
2019-02-02T18:42:23.222Z," 1.95"
2019-02-02T18:47:19.939Z," 1.92"
2019-02-02T18:52:15.204Z," 2.02"
2019-02-02T18:57:10.620Z," 1.95"
2019-02-02T19:02:06.122Z," 2.14"
2019-02-02T19:07:02.352Z," 1.99"
2019-02-02T19:11:57.650Z," 2.02"
2019-02-02T19:17:00.682Z," 2.10"
2019-02-02T19:21:52.758Z," 2.02"
2019-02-02T19:26:49.420Z," 2.06"
2019-02-02T19:31:44.679Z," 2.13"
2019-02-02T19:36:39.783Z," 2.06"
2019-02-02T19:41:35.809Z," 2.11"
2019-02-02T19:46:31.399Z," 2.15"
2019-02-02T19:51:27.076Z," 2.02"
2019-02-02T19:56:22.685Z," 2.00"
2019-02-02T20:01:18.272Z," 2.11"
2019-02-02T20:06:14.727Z," 2.08"
2019-02-02T20:11:11.017Z," 2.00"
2019-02-02T20:16:06.971Z," 2.07"
2019-02-02T20:21:03.171Z," 2.06"
2019-02-02T20:25:59.546Z," 2.11"
2019-02-02T20:30:55.129Z," 2.11"
2019-02-02T20:35:51.620Z," 2.07"
2019-02-02T20:40:47.929Z," 2.10"
2019-02-02T20:45:42.971Z," 2.13"
2019-02-02T20:50:38.563Z," 2.15"
2019-02-02T20:55:35.172Z," 2.02"
2019-02-02T21:00:31.517Z," 2.13"
2019-02-02T21:05:26.407Z," 2.13"
2019-02-02T21:10:22.968Z," 1.97"
2019-02-02T21:15:19.274Z," 2.14"
2019-02-02T21:20:14.467Z," 2.06"
2019-02-02T21:25:10.171Z," 2.00"
2019-02-02T21:30:05.753Z," 2.26"
2019-02-02T21:35:02.243Z," 2.18"
2019-02-02T21:39:57.988Z," 2.15"
2019-02-02T21:44:54.311Z," 1.95"
2019-02-02T21:49:50.673Z," 2.14"
2019-02-02T21:54:47.331Z," 2.10"
2019-02-02T21:59:42.677Z," 2.10"
2019-02-02T22:04:38.157Z," 2.06"
2019-02-02T22:09:33.890Z," 2.15"
2019-02-02T22:14:29.105Z," 2.20"
2019-02-02T22:19:24.673Z," 2.29"
2019-02-02T22:24:20.273Z," 2.29"
2019-02-02T22:29:16.890Z," 2.25"
2019-02-02T22:34:13.281Z," 2.28"
2019-02-02T22:39:08.378Z," 2.22"
2019-02-02T22:44:04.604Z," 2.25"
2019-02-02T22:49:00.129Z," 2.36"
2019-02-02T22:53:55.722Z," 2.39"
2019-02-02T22:58:52.380Z," 2.39"
2019-02-02T23:03:48.123Z," 2.42"
2019-02-02T23:08:44.766Z," 2.43"
2019-02-02T23:13:40.228Z," 2.36"
2019-02-02T23:18:35.920Z," 2.47"
2019-02-02T23:23:32.487Z," 2.43"
2019-02-02T23:28:28.785Z," 2.39"
2019-02-02T23:33:24.058Z," 2.43"
2019-02-02T23:38:19.991Z," 2.43"
2019-02-02T23:43:16.536Z," 2.39"
2019-02-02T23:48:11.759Z," 2.42"
2019-02-02T23:53:07.478Z," 2.43"
2019-02-02T23:58:03.095Z," 2.38"
